^^
Meteo Knjazevac Station Historical Data
Daily Summary for August 25, 2021 Units:  Both    English   Metric
Daily Weekly Monthly Yearly Custom
  High: Low: Average:
Temperature: 62.2 °F /  16.8 °C 60.6 °F /  15.9 °C 61.1 °F /  16.2 °C
Dew Point: 58.9 °F /  14.9 °C 57.2 °F /  14 °C 57.9 °F /  14.4 °C
Humidity: 93% 86% 89%
Wind Speed: 2mph /  3.2km/h - 0.8mph /  1.3km/h
Wind Gust: 8mph /  12.9km/h - -
Wind- - SW
Pressure: 30.20 in /  1022.6 hPa 30.18 in /  1021.9 hPa -
Precipitation: 0.00 in /  0 mm    
Historical Graphs
 
 
Tabular Data for August 25, 2021
Time Temperature Dew Point Pressure Wind Wind Speed Wind Gust Humidity Rainfall Rate (Hourly) solar Conditions
00:00 62.2 °F /  16.8 °C 58 °F /  14.4 °C 30.19in /  1022.2hPa SSE 1mph /  1.6km/h 5mph /  8km/h 86% 0.00in /  0mm 0 W/m2
00:10 62.1 °F /  16.7 °C 57.8 °F /  14.3 °C 30.19in /  1022.2hPa Calm   2mph /  3.2km/h 86% 0.00in /  0mm 0 W/m2
00:20 61.9 °F /  16.6 °C 57.6 °F /  14.2 °C 30.18in /  1021.9hPa South 1mph /  1.6km/h 3mph /  4.8km/h 86% 0.00in /  0mm 0 W/m2
00:30 61.7 °F /  16.5 °C 58.1 °F /  14.5 °C 30.19in /  1022.2hPa Calm   3mph /  4.8km/h 88% 0.00in /  0mm 0 W/m2
00:40 61.5 °F /  16.4 °C 57.9 °F /  14.4 °C 30.18in /  1021.9hPa Calm   1mph /  1.6km/h 88% 0.00in /  0mm 0 W/m2
00:50 61.5 °F /  16.4 °C 57.9 °F /  14.4 °C 30.18in /  1021.9hPa Calm     88% 0.00in /  0mm 0 W/m2
01:00 61.5 °F /  16.4 °C 58.2 °F /  14.6 °C 30.18in /  1021.9hPa Calm   2mph /  3.2km/h 89% 0.00in /  0mm 0 W/m2
01:10 61.3 °F /  16.3 °C 58.1 °F /  14.5 °C 30.18in /  1021.9hPa Calm   1mph /  1.6km/h 89% 0.00in /  0mm 0 W/m2
01:20 61.3 °F /  16.3 °C 58.1 °F /  14.5 °C 30.19in /  1022.2hPa Calm   2mph /  3.2km/h 89% 0.00in /  0mm 0 W/m2
01:30 61.3 °F /  16.3 °C 58.1 °F /  14.5 °C 30.19in /  1022.2hPa Calm   1mph /  1.6km/h 89% 0.00in /  0mm 0 W/m2
01:40 61.2 °F /  16.2 °C 57.9 °F /  14.4 °C 30.19in /  1022.2hPa Calm   2mph /  3.2km/h 89% 0.00in /  0mm 0 W/m2
01:50 61.2 °F /  16.2 °C 58.2 °F /  14.6 °C 30.19in /  1022.2hPa West 1mph /  1.6km/h 2mph /  3.2km/h 90% 0.00in /  0mm 0 W/m2
02:00 61.2 °F /  16.2 °C 57.9 °F /  14.4 °C 30.18in /  1021.9hPa ENE 1mph /  1.6km/h 3mph /  4.8km/h 89% 0.00in /  0mm 0 W/m2
02:10 61.1 °F /  16.2 °C 57.8 °F /  14.3 °C 30.18in /  1021.9hPa SE 1mph /  1.6km/h 4mph /  6.4km/h 89% 0.00in /  0mm 0 W/m2
02:20 61 °F /  16.1 °C 57.7 °F /  14.3 °C 30.18in /  1021.9hPa SW 1mph /  1.6km/h 3mph /  4.8km/h 89% 0.00in /  0mm 0 W/m2
02:30 61 °F /  16.1 °C 58 °F /  14.4 °C 30.18in /  1021.9hPa West 2mph /  3.2km/h 3mph /  4.8km/h 90% 0.00in /  0mm 0 W/m2
02:40 61 °F /  16.1 °C 58 °F /  14.4 °C 30.19in /  1022.2hPa NNW 2mph /  3.2km/h 4mph /  6.4km/h 90% 0.00in /  0mm 0 W/m2
02:50 61.2 °F /  16.2 °C 57.9 °F /  14.4 °C 30.20in /  1022.6hPa NNE 2mph /  3.2km/h 4mph /  6.4km/h 89% 0.00in /  0mm 0 W/m2
03:00 61.2 °F /  16.2 °C 58.2 °F /  14.6 °C 30.19in /  1022.2hPa NE 1mph /  1.6km/h 6mph /  9.7km/h 90% 0.00in /  0mm 0 W/m2
03:10 61 °F /  16.1 °C 58.9 °F /  14.9 °C 30.20in /  1022.6hPa NE 1mph /  1.6km/h 7mph /  11.3km/h 93% 0.00in /  0mm 0 W/m2
03:20 61 °F /  16.1 °C 58.3 °F /  14.6 °C 30.19in /  1022.2hPa NW 2mph /  3.2km/h 7mph /  11.3km/h 91% 0.00in /  0mm 0 W/m2
03:30 61 °F /  16.1 °C 58.6 °F /  14.8 °C 30.19in /  1022.2hPa Calm   7mph /  11.3km/h 92% 0.00in /  0mm 0 W/m2
03:40 61 °F /  16.1 °C 58.3 °F /  14.6 °C 30.19in /  1022.2hPa Calm   2mph /  3.2km/h 91% 0.00in /  0mm 0 W/m2
03:50 60.8 °F /  16 °C 58.2 °F /  14.6 °C 30.19in /  1022.2hPa NNW 1mph /  1.6km/h 3mph /  4.8km/h 91% 0.00in /  0mm 0 W/m2
04:00 60.8 °F /  16 °C 58.8 °F /  14.9 °C 30.19in /  1022.2hPa NW 1mph /  1.6km/h 2mph /  3.2km/h 93% 0.00in /  0mm 0 W/m2
04:10 60.8 °F /  16 °C 58.2 °F /  14.6 °C 30.20in /  1022.6hPa Calm   3mph /  4.8km/h 91% 0.00in /  0mm 0 W/m2
04:20 61 °F /  16.1 °C 58 °F /  14.4 °C 30.19in /  1022.2hPa North 2mph /  3.2km/h 7mph /  11.3km/h 90% 0.00in /  0mm 0 W/m2
04:30 60.8 °F /  16 °C 58.2 °F /  14.6 °C 30.20in /  1022.6hPa North 2mph /  3.2km/h 6mph /  9.7km/h 91% 0.00in /  0mm 0 W/m2
04:40 60.8 °F /  16 °C 57.5 °F /  14.2 °C 30.19in /  1022.2hPa North 1mph /  1.6km/h 8mph /  12.9km/h 89% 0.00in /  0mm 0 W/m2
04:50 60.8 °F /  16 °C 57.5 °F /  14.2 °C 30.19in /  1022.2hPa Calm   6mph /  9.7km/h 89% 0.00in /  0mm 0 W/m2
05:00 60.8 °F /  16 °C 57.2 °F /  14 °C 30.19in /  1022.2hPa NNW 2mph /  3.2km/h 5mph /  8km/h 88% 0.00in /  0mm 1 W/m2
05:10 60.6 °F /  15.9 °C 57.4 °F /  14.1 °C 30.20in /  1022.6hPa NW 1mph /  1.6km/h 5mph /  8km/h 89% 0.00in /  0mm 4 W/m2
05:20 60.6 °F /  15.9 °C 57.4 °F /  14.1 °C 30.20in /  1022.6hPa Calm   2mph /  3.2km/h 89% 0.00in /  0mm 11 W/m2
05:30 60.6 °F /  15.9 °C 57.4 °F /  14.1 °C 30.20in /  1022.6hPa NW 1mph /  1.6km/h 2mph /  3.2km/h 89% 0.00in /  0mm 18 W/m2
05:40 60.6 °F /  15.9 °C 57.4 °F /  14.1 °C 30.20in /  1022.6hPa Calm   2mph /  3.2km/h 89% 0.00in /  0mm 20 W/m2
05:50 60.6 °F /  15.9 °C 57.4 °F /  14.1 °C 30.20in /  1022.6hPa Calm   2mph /  3.2km/h 89% 0.00in /  0mm 18 W/m2
Knjazevac, Serbia
Compliments of Weather Underground - 2 mb